sensor_id;sensor_type;location;lat;lon;timestamp;pressure;altitude;pressure_sealevel;temperature;humidity
14902;BME280;7542;49.078;9.194;2023-04-12T00:00:02;98094.28;;;27.84;30.85
14902;BME280;7542;49.078;9.194;2023-04-12T00:01:05;98089.19;;;27.83;30.93
14902;BME280;7542;49.078;9.194;2023-04-12T00:02:07;98087.00;;;27.85;30.83
14902;BME280;7542;49.078;9.194;2023-04-12T00:03:09;98085.09;;;27.85;30.74
14902;BME280;7542;49.078;9.194;2023-04-12T00:04:11;98092.38;;;27.85;30.83
14902;BME280;7542;49.078;9.194;2023-04-12T00:05:15;98091.28;;;27.86;30.84
14902;BME280;7542;49.078;9.194;2023-04-12T00:06:17;98098.28;;;27.87;30.73
14902;BME280;7542;49.078;9.194;2023-04-12T00:07:23;98086.69;;;27.86;30.68
14902;BME280;7542;49.078;9.194;2023-04-12T00:08:25;98091.28;;;27.86;30.84
14902;BME280;7542;49.078;9.194;2023-04-12T00:09:33;98094.47;;;27.88;30.54
14902;BME280;7542;49.078;9.194;2023-04-12T00:10:37;98087.78;;;27.85;30.59
14902;BME280;7542;49.078;9.194;2023-04-12T00:11:39;98084.81;;;27.87;30.81
14902;BME280;7542;49.078;9.194;2023-04-12T00:12:40;98083.19;;;27.86;30.74
14902;BME280;7542;49.078;9.194;2023-04-12T00:13:42;98080.22;;;27.87;30.73
14902;BME280;7542;49.078;9.194;2023-04-12T00:14:45;98082.91;;;27.87;30.44
14902;BME280;7542;49.078;9.194;2023-04-12T00:15:48;98078.59;;;27.86;30.71
14902;BME280;7542;49.078;9.194;2023-04-12T00:16:50;98073.22;;;27.86;30.74
14902;BME280;7542;49.078;9.194;2023-04-12T00:17:52;98076.72;;;27.87;30.40
14902;BME280;7542;49.078;9.194;2023-04-12T00:18:54;98076.72;;;27.87;30.59
14902;BME280;7542;49.078;9.194;2023-04-12T00:19:56;98082.91;;;27.87;30.55
14902;BME280;7542;49.078;9.194;2023-04-12T00:20:58;98077.00;;;27.85;30.58
14902;BME280;7542;49.078;9.194;2023-04-12T00:22:00;98077.00;;;27.85;30.57
14902;BME280;7542;49.078;9.194;2023-04-12T00:23:02;98078.59;;;27.86;30.44
14902;BME280;7542;49.078;9.194;2023-04-12T00:24:04;98069.44;;;27.87;30.48
14902;BME280;7542;49.078;9.194;2023-04-12T00:25:07;98073.22;;;27.86;30.42
14902;BME280;7542;49.078;9.194;2023-04-12T00:26:09;98078.59;;;27.86;30.53
14902;BME280;7542;49.078;9.194;2023-04-12T00:27:11;98071.13;;;27.83;30.52
14902;BME280;7542;49.078;9.194;2023-04-12T00:28:13;98072.94;;;27.88;30.27
14902;BME280;7542;49.078;9.194;2023-04-12T00:29:16;98065.44;;;27.85;30.36
14902;BME280;7542;49.078;9.194;2023-04-12T00:30:18;98071.63;;;27.85;30.39
14902;BME280;7542;49.078;9.194;2023-04-12T00:31:21;98073.53;;;27.85;30.37
14902;BME280;7542;49.078;9.194;2023-04-12T00:32:23;98071.63;;;27.85;30.24
14902;BME280;7542;49.078;9.194;2023-04-12T00:33:25;98074.63;;;27.84;30.25
14902;BME280;7542;49.078;9.194;2023-04-12T00:34:27;98072.72;;;27.84;30.19
14902;BME280;7542;49.078;9.194;2023-04-12T00:35:29;98065.25;;;27.81;30.37
14902;BME280;7542;49.078;9.194;2023-04-12T00:36:31;98068.44;;;27.83;30.42
14902;BME280;7542;49.078;9.194;2023-04-12T00:37:33;98059.56;;;27.83;30.33
14902;BME280;7542;49.078;9.194;2023-04-12T00:38:37;98065.75;;;27.83;30.47
14902;BME280;7542;49.078;9.194;2023-04-12T00:39:39;98063.63;;;27.80;30.42
14902;BME280;7542;49.078;9.194;2023-04-12T00:40:42;98059.84;;;27.81;30.32
14902;BME280;7542;49.078;9.194;2023-04-12T00:41:44;98060.66;;;27.82;30.21
14902;BME280;7542;49.078;9.194;2023-04-12T00:42:46;98058.25;;;27.80;30.33
14902;BME280;7542;49.078;9.194;2023-04-12T00:43:48;98063.63;;;27.80;30.36
14902;BME280;7542;49.078;9.194;2023-04-12T00:44:50;98053.97;;;27.79;30.49
14902;BME280;7542;49.078;9.194;2023-04-12T00:45:55;98059.84;;;27.81;30.37
14902;BME280;7542;49.078;9.194;2023-04-12T00:46:59;98057.44;;;27.80;30.27
14902;BME280;7542;49.078;9.194;2023-04-12T00:48:02;98060.16;;;27.80;30.32
14902;BME280;7542;49.078;9.194;2023-04-12T00:49:04;98058.53;;;27.79;30.33
14902;BME280;7542;49.078;9.194;2023-04-12T00:50:08;98058.81;;;27.77;30.49
14902;BME280;7542;49.078;9.194;2023-04-12T00:51:10;98053.13;;;27.79;30.32
14902;BME280;7542;49.078;9.194;2023-04-12T00:52:12;98058.25;;;27.80;30.29
14902;BME280;7542;49.078;9.194;2023-04-12T00:53:17;98053.44;;;27.77;30.15
14902;BME280;7542;49.078;9.194;2023-04-12T00:54:19;98055.03;;;27.78;30.32
14902;BME280;7542;49.078;9.194;2023-04-12T00:55:23;98054.22;;;27.78;30.34
14902;BME280;7542;49.078;9.194;2023-04-12T00:56:26;98052.13;;;27.75;30.28
14902;BME280;7542;49.078;9.194;2023-04-12T00:57:38;98053.66;;;27.81;30.23
14902;BME280;7542;49.078;9.194;2023-04-12T00:58:40;98045.66;;;27.76;30.20
14902;BME280;7542;49.078;9.194;2023-04-12T00:59:42;98049.44;;;27.75;30.45
14902;BME280;7542;49.078;9.194;2023-04-12T01:00:44;98046.44;;;27.76;30.15
14902;BME280;7542;49.078;9.194;2023-04-12T01:01:52;98052.13;;;27.75;30.32
14902;BME280;7542;49.078;9.194;2023-04-12T01:02:54;98046.44;;;27.76;30.32
14902;BME280;7542;49.078;9.194;2023-04-12T01:03:58;98049.75;;;27.73;30.27
14902;BME280;7542;49.078;9.194;2023-04-12T01:05:07;98041.06;;;27.76;30.16
14902;BME280;7542;49.078;9.194;2023-04-12T01:06:23;98043.19;;;27.79;30.26
14902;BME280;7542;49.078;9.194;2023-04-12T01:09:16;98037.25;;;27.77;30.24
14902;BME280;7542;49.078;9.194;2023-04-12T01:11:59;98045.88;;;27.79;30.17
14902;BME280;7542;49.078;9.194;2023-04-12T01:15:05;98042.88;;;27.81;30.10
14902;BME280;7542;49.078;9.194;2023-04-12T01:17:31;98039.56;;;27.70;30.27
14902;BME280;7542;49.078;9.194;2023-04-12T01:18:44;98039.25;;;27.71;30.11
14902;BME280;7542;49.078;9.194;2023-04-12T01:20:05;98033.88;;;27.71;30.10
14902;BME280;7542;49.078;9.194;2023-04-12T01:21:44;98028.19;;;27.73;30.21
14902;BME280;7542;49.078;9.194;2023-04-12T01:24:54;98029.28;;;27.72;30.10
14902;BME280;7542;49.078;9.194;2023-04-12T01:27:58;98031.25;;;27.66;30.18
14902;BME280;7542;49.078;9.194;2023-04-12T01:29:08;98019.94;;;27.64;30.28
14902;BME280;7542;49.078;9.194;2023-04-12T01:30:14;98029.41;;;27.62;29.99
14902;BME280;7542;49.078;9.194;2023-04-12T01:31:19;98019.75;;;27.61;30.33
14902;BME280;7542;49.078;9.194;2023-04-12T01:32:22;98015.75;;;27.58;30.31
14902;BME280;7542;49.078;9.194;2023-04-12T01:33:25;98022.22;;;27.57;30.38
14902;BME280;7542;49.078;9.194;2023-04-12T01:34:34;98018.16;;;27.60;30.28
14902;BME280;7542;49.078;9.194;2023-04-12T01:35:38;98015.22;;;27.56;30.28
14902;BME280;7542;49.078;9.194;2023-04-12T01:36:43;98019.75;;;27.61;30.21
14902;BME280;7542;49.078;9.194;2023-04-12T01:37:47;98016.00;;;27.57;30.30
14902;BME280;7542;49.078;9.194;2023-04-12T01:38:50;98007.94;;;27.57;30.38
14902;BME280;7542;49.078;9.194;2023-04-12T01:39:52;98013.63;;;27.55;30.34
14902;BME280;7542;49.078;9.194;2023-04-12T01:40:55;98017.66;;;27.58;30.29
14902;BME280;7542;49.078;9.194;2023-04-12T01:41:57;98003.66;;;27.56;30.34
14902;BME280;7542;49.078;9.194;2023-04-12T01:43:12;98005.47;;;27.60;30.28
14902;BME280;7542;49.078;9.194;2023-04-12T01:44:16;97998.78;;;27.58;30.47
14902;BME280;7542;49.078;9.194;2023-04-12T01:45:18;98006.06;;;27.57;30.34
14902;BME280;7542;49.078;9.194;2023-04-12T01:46:21;97999.06;;;27.56;30.35
14902;BME280;7542;49.078;9.194;2023-04-12T01:47:25;98002.28;;;27.58;30.20
14902;BME280;7542;49.078;9.194;2023-04-12T01:48:27;98004.19;;;27.58;30.30
14902;BME280;7542;49.078;9.194;2023-04-12T01:49:43;97996.59;;;27.60;30.32
14902;BME280;7542;49.078;9.194;2023-04-12T01:51:04;98002.47;;;27.62;30.35
14902;BME280;7542;49.078;9.194;2023-04-12T01:52:18;97998.69;;;27.63;30.26
14902;BME280;7542;49.078;9.194;2023-04-12T01:54:33;97993.91;;;27.60;30.24
14902;BME280;7542;49.078;9.194;2023-04-12T01:55:40;97990.72;;;27.58;30.42
14902;BME280;7542;49.078;9.194;2023-04-12T01:56:53;97999.78;;;27.62;30.25
14902;BME280;7542;49.078;9.194;2023-04-12T01:58:01;97993.09;;;27.59;30.28
14902;BME280;7542;49.078;9.194;2023-04-12T01:59:05;97991.78;;;27.57;30.21
14902;BME280;7542;49.078;9.194;2023-04-12T02:00:10;97983.44;;;27.58;30.57
14902;BME280;7542;49.078;9.194;2023-04-12T02:01:14;97979.41;;;27.56;30.31
14902;BME280;7542;49.078;9.194;2023-04-12T02:02:17;97978.31;;;27.57;30.41
14902;BME280;7542;49.078;9.194;2023-04-12T02:03:22;97976.44;;;27.57;30.26
14902;BME280;7542;49.078;9.194;2023-04-12T02:04:26;97964.84;;;27.57;30.27
14902;BME280;7542;49.078;9.194;2023-04-12T02:05:28;97968.94;;;27.54;30.35
14902;BME280;7542;49.078;9.194;2023-04-12T02:06:33;97956.28;;;27.55;30.37
14902;BME280;7542;49.078;9.194;2023-04-12T02:07:35;97963.25;;;27.56;30.44
14902;BME280;7542;49.078;9.194;2023-04-12T02:08:38;97949.78;;;27.56;30.13
14902;BME280;7542;49.078;9.194;2023-04-12T02:09:40;97947.09;;;27.56;30.34
14902;BME280;7542;49.078;9.194;2023-04-12T02:10:42;97949.00;;;27.55;30.11
14902;BME280;7542;49.078;9.194;2023-04-12T02:11:48;97934.44;;;27.56;30.33
14902;BME280;7542;49.078;9.194;2023-04-12T02:12:50;97931.22;;;27.54;30.18
14902;BME280;7542;49.078;9.194;2023-04-12T02:13:52;97927.75;;;27.54;30.29
14902;BME280;7542;49.078;9.194;2023-04-12T02:14:54;97933.94;;;27.54;30.37
14902;BME280;7542;49.078;9.194;2023-04-12T02:15:57;97931.22;;;27.54;30.09
14902;BME280;7542;49.078;9.194;2023-04-12T02:16:59;97932.81;;;27.55;29.85
14902;BME280;7542;49.078;9.194;2023-04-12T02:18:03;97937.41;;;27.55;30.31
14902;BME280;7542;49.078;9.194;2023-04-12T02:19:05;97930.44;;;27.54;30.20
14902;BME280;7542;49.078;9.194;2023-04-12T02:20:09;97925.06;;;27.54;30.15
14902;BME280;7542;49.078;9.194;2023-04-12T02:21:12;97926.66;;;27.55;30.09
14902;BME280;7542;49.078;9.194;2023-04-12T02:22:14;97923.44;;;27.53;30.27
14902;BME280;7542;49.078;9.194;2023-04-12T02:23:17;97911.88;;;27.52;30.11
14902;BME280;7542;49.078;9.194;2023-04-12T02:24:19;97919.16;;;27.52;30.30
14902;BME280;7542;49.078;9.194;2023-04-12T02:25:22;97907.59;;;27.51;30.08
14902;BME280;7542;49.078;9.194;2023-04-12T02:26:23;97912.97;;;27.51;30.12
14902;BME280;7542;49.078;9.194;2023-04-12T02:27:26;97908.69;;;27.50;30.12
14902;BME280;7542;49.078;9.194;2023-04-12T02:28:28;97907.59;;;27.51;30.30
14902;BME280;7542;49.078;9.194;2023-04-12T02:29:30;97909.50;;;27.51;30.59
14902;BME280;7542;49.078;9.194;2023-04-12T02:30:32;97910.59;;;27.50;30.09
14902;BME280;7542;49.078;9.194;2023-04-12T02:31:35;97904.09;;;27.51;30.03
14902;BME280;7542;49.078;9.194;2023-04-12T02:32:39;97903.31;;;27.50;30.03
14902;BME280;7542;49.078;9.194;2023-04-12T02:33:47;97901.72;;;27.49;30.04
14902;BME280;7542;49.078;9.194;2023-04-12T02:34:49;97901.41;;;27.51;30.15
14902;BME280;7542;49.078;9.194;2023-04-12T02:35:54;97900.91;;;27.49;30.17
14902;BME280;7542;49.078;9.194;2023-04-12T02:36:57;97902.03;;;27.48;30.19
14902;BME280;7542;49.078;9.194;2023-04-12T02:37:59;97896.31;;;27.49;30.11
14902;BME280;7542;49.078;9.194;2023-04-12T02:39:01;97900.13;;;27.48;30.25
14902;BME280;7542;49.078;9.194;2023-04-12T02:40:04;97891.25;;;27.48;30.32
14902;BME280;7542;49.078;9.194;2023-04-12T02:41:07;97893.94;;;27.48;30.21
14902;BME280;7542;49.078;9.194;2023-04-12T02:42:09;97892.84;;;27.49;30.07
14902;BME280;7542;49.078;9.194;2023-04-12T02:43:11;97886.44;;;27.44;30.21
14902;BME280;7542;49.078;9.194;2023-04-12T02:44:13;97891.25;;;27.48;30.16
14902;BME280;7542;49.078;9.194;2023-04-12T02:45:15;97890.44;;;27.47;30.14
14902;BME280;7542;49.078;9.194;2023-04-12T02:46:22;97889.34;;;27.48;30.33
14902;BME280;7542;49.078;9.194;2023-04-12T02:47:25;97884.25;;;27.47;30.17
14902;BME280;7542;49.078;9.194;2023-04-12T02:48:29;97886.97;;;27.47;30.25
14902;BME280;7542;49.078;9.194;2023-04-12T02:49:31;97883.97;;;27.48;29.58
14902;BME280;7542;49.078;9.194;2023-04-12T02:50:36;97881.56;;;27.47;30.25
14902;BME280;7542;49.078;9.194;2023-04-12T02:51:38;97877.78;;;27.48;30.05
14902;BME280;7542;49.078;9.194;2023-04-12T02:52:40;97874.56;;;27.45;29.99
14902;BME280;7542;49.078;9.194;2023-04-12T02:53:42;97876.19;;;27.47;30.10
14902;BME280;7542;49.078;9.194;2023-04-12T02:54:44;97872.97;;;27.44;30.15
14902;BME280;7542;49.078;9.194;2023-04-12T02:55:46;97872.16;;;27.44;30.18
14902;BME280;7542;49.078;9.194;2023-04-12T02:56:48;97874.38;;;27.42;30.11
14902;BME280;7542;49.078;9.194;2023-04-12T02:57:50;97867.09;;;27.42;29.99
14902;BME280;7542;49.078;9.194;2023-04-12T02:58:52;97874.06;;;27.43;29.90
14902;BME280;7542;49.078;9.194;2023-04-12T02:59:54;97864.09;;;27.44;29.89
14902;BME280;7542;49.078;9.194;2023-04-12T03:00:56;97859.81;;;27.43;30.12
14902;BME280;7542;49.078;9.194;2023-04-12T03:02:01;97866.00;;;27.43;30.06
14902;BME280;7542;49.078;9.194;2023-04-12T03:03:03;97857.41;;;27.41;30.17
14902;BME280;7542;49.078;9.194;2023-04-12T03:04:05;97860.59;;;27.43;29.93
14902;BME280;7542;49.078;9.194;2023-04-12T03:05:09;97861.22;;;27.40;29.89
14902;BME280;7542;49.078;9.194;2023-04-12T03:06:11;97852.03;;;27.41;29.95
14902;BME280;7542;49.078;9.194;2023-04-12T03:07:15;97857.41;;;27.41;30.26
14902;BME280;7542;49.078;9.194;2023-04-12T03:08:18;97851.53;;;27.39;29.99
14902;BME280;7542;49.078;9.194;2023-04-12T03:09:20;97857.72;;;27.40;29.93
14902;BME280;7542;49.078;9.194;2023-04-12T03:10:22;97849.94;;;27.38;30.12
14902;BME280;7542;49.078;9.194;2023-04-12T03:11:24;97851.22;;;27.41;29.83
14902;BME280;7542;49.078;9.194;2023-04-12T03:12:26;97840.28;;;27.37;30.16
14902;BME280;7542;49.078;9.194;2023-04-12T03:13:29;97849.63;;;27.40;30.18
14902;BME280;7542;49.078;9.194;2023-04-12T03:14:31;97853.94;;;27.41;29.95
14902;BME280;7542;49.078;9.194;2023-04-12T03:15:33;97840.75;;;27.39;30.02
14902;BME280;7542;49.078;9.194;2023-04-12T03:16:36;97844.84;;;27.37;30.09
14902;BME280;7542;49.078;9.194;2023-04-12T03:17:38;97834.88;;;27.37;30.18
14902;BME280;7542;49.078;9.194;2023-04-12T03:18:40;97839.78;;;27.35;30.04
14902;BME280;7542;49.078;9.194;2023-04-12T03:19:42;97839.47;;;27.37;29.91
14902;BME280;7542;49.078;9.194;2023-04-12T03:20:44;97838.38;;;27.38;30.12
14902;BME280;7542;49.078;9.194;2023-04-12T03:21:48;97833.00;;;27.38;30.28
14902;BME280;7542;49.078;9.194;2023-04-12T03:22:50;97829.50;;;27.37;30.00
14902;BME280;7542;49.078;9.194;2023-04-12T03:23:52;97836.47;;;27.38;30.20
14902;BME280;7542;49.078;9.194;2023-04-12T03:24:54;97815.81;;;27.34;30.15
14902;BME280;7542;49.078;9.194;2023-04-12T03:25:56;97817.94;;;27.37;30.02
14902;BME280;7542;49.078;9.194;2023-04-12T03:27:00;97814.44;;;27.36;29.76
14902;BME280;7542;49.078;9.194;2023-04-12T03:28:02;97810.97;;;27.36;30.04
14902;BME280;7542;49.078;9.194;2023-04-12T03:29:04;97810.16;;;27.35;30.08
14902;BME280;7542;49.078;9.194;2023-04-12T03:30:12;97811.75;;;27.36;30.19
14902;BME280;7542;49.078;9.194;2023-04-12T03:31:14;97811.75;;;27.36;30.20
14902;BME280;7542;49.078;9.194;2023-04-12T03:32:23;97805.84;;;27.34;29.87
14902;BME280;7542;49.078;9.194;2023-04-12T03:33:25;97798.88;;;27.33;30.00
14902;BME280;7542;49.078;9.194;2023-04-12T03:34:28;97808.53;;;27.34;30.23
14902;BME280;7542;49.078;9.194;2023-04-12T03:35:33;97796.19;;;27.33;30.10
14902;BME280;7542;49.078;9.194;2023-04-12T03:36:35;97793.19;;;27.35;29.93
14902;BME280;7542;49.078;9.194;2023-04-12T03:37:41;97785.09;;;27.35;30.21
14902;BME280;7542;49.078;9.194;2023-04-12T03:38:43;97788.09;;;27.33;29.87
14902;BME280;7542;49.078;9.194;2023-04-12T03:39:45;97789.19;;;27.32;30.00
14902;BME280;7542;49.078;9.194;2023-04-12T03:40:49;97783.50;;;27.34;30.17
14902;BME280;7542;49.078;9.194;2023-04-12T03:41:51;97786.50;;;27.32;30.02
14902;BME280;7542;49.078;9.194;2023-04-12T03:42:54;97780.31;;;27.32;30.10
14902;BME280;7542;49.078;9.194;2023-04-12T03:43:56;97778.44;;;27.32;30.16
14902;BME280;7542;49.078;9.194;2023-04-12T03:44:58;97775.25;;;27.30;29.88
14902;BME280;7542;49.078;9.194;2023-04-12T03:46:04;97776.84;;;27.31;29.87
14902;BME280;7542;49.078;9.194;2023-04-12T03:47:07;97779.53;;;27.31;30.01
14902;BME280;7542;49.078;9.194;2023-04-12T03:48:09;97776.03;;;27.31;30.08
14902;BME280;7542;49.078;9.194;2023-04-12T03:49:13;97775.53;;;27.29;30.07
14902;BME280;7542;49.078;9.194;2023-04-12T03:50:15;97772.84;;;27.29;29.97
14902;BME280;7542;49.078;9.194;2023-04-12T03:51:17;97773.66;;;27.29;30.11
14902;BME280;7542;49.078;9.194;2023-04-12T03:52:19;97768.25;;;27.29;29.96
14902;BME280;7542;49.078;9.194;2023-04-12T03:53:21;97766.66;;;27.28;29.92
14902;BME280;7542;49.078;9.194;2023-04-12T03:54:23;97772.06;;;27.28;30.02
14902;BME280;7542;49.078;9.194;2023-04-12T03:55:25;97765.56;;;27.29;30.03
14902;BME280;7542;49.078;9.194;2023-04-12T03:56:27;97769.84;;;27.30;30.04
14902;BME280;7542;49.078;9.194;2023-04-12T03:57:29;97778.22;;;27.29;29.98
14902;BME280;7542;49.078;9.194;2023-04-12T03:58:31;97766.66;;;27.28;29.81
14902;BME280;7542;49.078;9.194;2023-04-12T03:59:34;97763.69;;;27.30;29.96
14902;BME280;7542;49.078;9.194;2023-04-12T04:00:36;97762.88;;;27.29;29.84
14902;BME280;7542;49.078;9.194;2023-04-12T04:01:38;97759.41;;;27.29;29.99
14902;BME280;7542;49.078;9.194;2023-04-12T04:02:40;97755.09;;;27.28;30.04
14902;BME280;7542;49.078;9.194;2023-04-12T04:03:43;97755.91;;;27.28;30.04
14902;BME280;7542;49.078;9.194;2023-04-12T04:04:47;97751.31;;;27.29;29.88
14902;BME280;7542;49.078;9.194;2023-04-12T04:05:49;97744.66;;;27.26;29.79
14902;BME280;7542;49.078;9.194;2023-04-12T04:06:51;97745.75;;;27.25;29.75
14902;BME280;7542;49.078;9.194;2023-04-12T04:07:53;97744.66;;;27.26;29.88
14902;BME280;7542;49.078;9.194;2023-04-12T04:08:59;97739.75;;;27.28;29.77
14902;BME280;7542;49.078;9.194;2023-04-12T04:10:01;97746.25;;;27.27;29.76
14902;BME280;7542;49.078;9.194;2023-04-12T04:11:04;97737.94;;;27.24;30.02
14902;BME280;7542;49.078;9.194;2023-04-12T04:12:06;97748.44;;;27.25;29.92
14902;BME280;7542;49.078;9.194;2023-04-12T04:13:09;97741.94;;;27.26;29.62
14902;BME280;7542;49.078;9.194;2023-04-12T04:14:12;97739.56;;;27.25;29.78
14902;BME280;7542;49.078;9.194;2023-04-12T04:15:14;97737.94;;;27.24;29.50
14902;BME280;7542;49.078;9.194;2023-04-12T04:16:16;97731.50;;;27.25;29.72
14902;BME280;7542;49.078;9.194;2023-04-12T04:17:18;97733.88;;;27.26;29.75
14902;BME280;7542;49.078;9.194;2023-04-12T04:18:20;97729.59;;;27.25;29.75
14902;BME280;7542;49.078;9.194;2023-04-12T04:19:23;97729.59;;;27.25;29.44
14902;BME280;7542;49.078;9.194;2023-04-12T04:20:25;97733.66;;;27.23;29.74
14902;BME280;7542;49.078;9.194;2023-04-12T04:21:28;97727.97;;;27.24;29.85
14902;BME280;7542;49.078;9.194;2023-04-12T04:22:33;97719.63;;;27.26;29.63
14902;BME280;7542;49.078;9.194;2023-04-12T04:23:35;97722.09;;;27.22;29.71
14902;BME280;7542;49.078;9.194;2023-04-12T04:24:40;97716.72;;;27.22;29.67
14902;BME280;7542;49.078;9.194;2023-04-12T04:25:43;97716.41;;;27.24;29.63
14902;BME280;7542;49.078;9.194;2023-04-12T04:26:46;97716.41;;;27.24;29.72
14902;BME280;7542;49.078;9.194;2023-04-12T04:27:48;97708.63;;;27.22;29.65
14902;BME280;7542;49.078;9.194;2023-04-12T04:28:50;97710.53;;;27.22;29.63
14902;BME280;7542;49.078;9.194;2023-04-12T04:29:52;97707.03;;;27.21;29.79
14902;BME280;7542;49.078;9.194;2023-04-12T04:30:54;97702.47;;;27.22;29.56
14902;BME280;7542;49.078;9.194;2023-04-12T04:31:58;97703.56;;;27.21;30.00
14902;BME280;7542;49.078;9.194;2023-04-12T04:33:00;97697.88;;;27.22;29.69
14902;BME280;7542;49.078;9.194;2023-04-12T04:34:04;97699.78;;;27.22;29.78
14902;BME280;7542;49.078;9.194;2023-04-12T04:35:06;97697.88;;;27.22;29.65
14902;BME280;7542;49.078;9.194;2023-04-12T04:36:09;97694.69;;;27.20;29.67
14902;BME280;7542;49.078;9.194;2023-04-12T04:37:11;97691.69;;;27.22;29.64
14902;BME280;7542;49.078;9.194;2023-04-12T04:38:13;97694.69;;;27.20;29.78
14902;BME280;7542;49.078;9.194;2023-04-12T04:39:16;97694.69;;;27.20;29.75
14902;BME280;7542;49.078;9.194;2023-04-12T04:40:18;97696.28;;;27.21;29.69
14902;BME280;7542;49.078;9.194;2023-04-12T04:41:22;97690.91;;;27.21;29.63
14902;BME280;7542;49.078;9.194;2023-04-12T04:42:24;97692.78;;;27.21;29.85
14902;BME280;7542;49.078;9.194;2023-04-12T04:43:28;97691.69;;;27.22;29.88
14902;BME280;7542;49.078;9.194;2023-04-12T04:44:31;97692.00;;;27.20;29.51
14902;BME280;7542;49.078;9.194;2023-04-12T04:45:36;97689.31;;;27.20;29.67
14902;BME280;7542;49.078;9.194;2023-04-12T04:46:39;97686.13;;;27.18;29.60
14902;BME280;7542;49.078;9.194;2023-04-12T04:47:41;97685.31;;;27.18;29.70
14902;BME280;7542;49.078;9.194;2023-04-12T04:48:44;97686.13;;;27.18;29.65
14902;BME280;7542;49.078;9.194;2023-04-12T04:49:46;97688.81;;;27.18;29.67
14902;BME280;7542;49.078;9.194;2023-04-12T04:50:48;97680.75;;;27.18;29.71
14902;BME280;7542;49.078;9.194;2023-04-12T04:51:53;97678.84;;;27.19;29.67
14902;BME280;7542;49.078;9.194;2023-04-12T04:52:54;97674.25;;;27.19;29.82
14902;BME280;7542;49.078;9.194;2023-04-12T04:53:57;97673.16;;;27.20;29.78
14902;BME280;7542;49.078;9.194;2023-04-12T04:54:59;97676.94;;;27.19;29.64
14902;BME280;7542;49.078;9.194;2023-04-12T04:56:04;97669.97;;;27.18;29.66
14902;BME280;7542;49.078;9.194;2023-04-12T04:57:06;97679.94;;;27.18;29.84
14902;BME280;7542;49.078;9.194;2023-04-12T04:58:13;97669.19;;;27.18;29.79
14902;BME280;7542;49.078;9.194;2023-04-12T04:59:16;97675.34;;;27.18;29.75
14902;BME280;7542;49.078;9.194;2023-04-12T05:00:19;97673.75;;;27.17;29.78
14902;BME280;7542;49.078;9.194;2023-04-12T05:01:22;97669.97;;;27.18;29.58
14902;BME280;7542;49.078;9.194;2023-04-12T05:02:29;97674.25;;;27.19;29.86
14902;BME280;7542;49.078;9.194;2023-04-12T05:03:32;97670.78;;;27.19;29.77
14902;BME280;7542;49.078;9.194;2023-04-12T05:04:43;97669.97;;;27.18;29.60
14902;BME280;7542;49.078;9.194;2023-04-12T05:05:50;97673.16;;;27.20;29.72
14902;BME280;7542;49.078;9.194;2023-04-12T05:06:52;97666.78;;;27.16;29.65
14902;BME280;7542;49.078;9.194;2023-04-12T05:07:54;97671.06;;;27.17;29.53
14902;BME280;7542;49.078;9.194;2023-04-12T05:08:57;97666.28;;;27.14;29.64
14902;BME280;7542;49.078;9.194;2023-04-12T05:09:59;97669.47;;;27.16;29.60
14902;BME280;7542;49.078;9.194;2023-04-12T05:11:01;97668.69;;;27.15;29.72
14902;BME280;7542;49.078;9.194;2023-04-12T05:12:04;97672.47;;;27.14;29.57
14902;BME280;7542;49.078;9.194;2023-04-12T05:13:06;97670.06;;;27.13;29.60
14902;BME280;7542;49.078;9.194;2023-04-12T05:14:10;97662.50;;;27.15;30.37
14902;BME280;7542;49.078;9.194;2023-04-12T05:15:13;97654.44;;;27.15;29.58
14902;BME280;7542;49.078;9.194;2023-04-12T05:16:15;97663.59;;;27.14;29.66
14902;BME280;7542;49.078;9.194;2023-04-12T05:17:17;97656.34;;;27.14;29.66
14902;BME280;7542;49.078;9.194;2023-04-12T05:18:19;97659.03;;;27.14;29.60
14902;BME280;7542;49.078;9.194;2023-04-12T05:19:22;97656.34;;;27.14;29.76
14902;BME280;7542;49.078;9.194;2023-04-12T05:20:24;97651.75;;;27.15;29.44
14902;BME280;7542;49.078;9.194;2023-04-12T05:21:26;97657.91;;;27.15;29.69
14902;BME280;7542;49.078;9.194;2023-04-12T05:22:29;97659.28;;;27.13;29.82
14902;BME280;7542;49.078;9.194;2023-04-12T05:23:36;97647.94;;;27.16;29.78
14902;BME280;7542;49.078;9.194;2023-04-12T05:24:42;97654.44;;;27.15;29.65
14902;BME280;7542;49.078;9.194;2023-04-12T05:25:46;97655.81;;;27.12;29.50
14902;BME280;7542;49.078;9.194;2023-04-12T05:26:50;97652.00;;;27.13;29.74
14902;BME280;7542;49.078;9.194;2023-04-12T05:27:52;97654.72;;;27.13;29.58
14902;BME280;7542;49.078;9.194;2023-04-12T05:28:54;97648.53;;;27.13;29.66
14902;BME280;7542;49.078;9.194;2023-04-12T05:29:57;97655.00;;;27.12;29.56
14902;BME280;7542;49.078;9.194;2023-04-12T05:30:59;97656.34;;;27.14;29.74
14902;BME280;7542;49.078;9.194;2023-04-12T05:32:01;97645.34;;;27.11;29.66
14902;BME280;7542;49.078;9.194;2023-04-12T05:33:03;97645.03;;;27.12;29.70
14902;BME280;7542;49.078;9.194;2023-04-12T05:34:05;97656.13;;;27.11;29.75
14902;BME280;7542;49.078;9.194;2023-04-12T05:35:07;97641.56;;;27.12;29.82
14902;BME280;7542;49.078;9.194;2023-04-12T05:36:10;97639.66;;;27.12;29.56
14902;BME280;7542;49.078;9.194;2023-04-12T05:37:12;97639.66;;;27.12;29.76
14902;BME280;7542;49.078;9.194;2023-04-12T05:38:14;97638.88;;;27.12;29.68
14902;BME280;7542;49.078;9.194;2023-04-12T05:39:16;97641.88;;;27.10;29.72
14902;BME280;7542;49.078;9.194;2023-04-12T05:40:21;97635.38;;;27.11;29.78
14902;BME280;7542;49.078;9.194;2023-04-12T05:41:23;97629.19;;;27.11;29.49
14902;BME280;7542;49.078;9.194;2023-04-12T05:42:25;97630.00;;;27.11;29.76
14902;BME280;7542;49.078;9.194;2023-04-12T05:43:27;97628.41;;;27.10;29.80
14902;BME280;7542;49.078;9.194;2023-04-12T05:44:29;97629.50;;;27.09;29.69
14902;BME280;7542;49.078;9.194;2023-04-12T05:45:32;97619.84;;;27.08;29.66
14902;BME280;7542;49.078;9.194;2023-04-12T05:46:34;97631.09;;;27.10;29.67
14902;BME280;7542;49.078;9.194;2023-04-12T05:47:36;97616.84;;;27.10;29.89
14902;BME280;7542;49.078;9.194;2023-04-12T05:48:38;97618.44;;;27.11;29.76
14902;BME280;7542;49.078;9.194;2023-04-12T05:49:40;97623.50;;;27.12;29.50
14902;BME280;7542;49.078;9.194;2023-04-12T05:50:51;97610.84;;;27.13;29.48
14902;BME280;7542;49.078;9.194;2023-04-12T05:51:53;97607.66;;;27.11;29.50